• Join FlightAware (Why Join?)
  • Login
  • US Flag 
06:17PM EST


 

Airport Tracker/Info


-or-


 

Live Flight TrackerFlight Track Log ✈ EMD27 ✈ 01-May-2013 ✈ KBNA - KBYL

Flight Track Log - Related Links

Times and Time Zones

All times are in EDT time to prevent confusion due to time zone crossing. See the EMD27 flight status page for this flight to view local times or setup timezone preferences in your user account.

Time Position Orientation Groundspeed Altitude Reporting Facility
EDT Latitude Longitude Course Direction KTS MPH feet Rate Location/Type
01:13AM 36.1000 -86.6833 90° East 115 132 1,000  Level Nashville TRACON
01:14AM 36.1000 -86.6500 90° East 134 154 2,700 1,380 Climbing Nashville TRACON
01:15AM 36.1008 -86.6397 84° East 143 165 3,200 1,140 Climbing Memphis Center
01:16AM 36.1119 -86.5931 74° East 138 159 4,400 1,200 Climbing Memphis Center
01:17AM 36.1250 -86.5489 70° East 138 159 5,600 1,140 Climbing Memphis Center
01:18AM 36.1383 -86.5019 71° East 138 159 6,700 900 Climbing Memphis Center
01:19AM 36.1492 -86.4553 74° East 138 159 7,500 780 Climbing Memphis Center
01:20AM 36.1644 -86.4108 67° East 144 166 8,300 780 Climbing Memphis Center
01:21AM 36.1778 -86.3689 68° East 157 181 9,100 780 Climbing Memphis Center
01:22AM 36.1928 -86.3194 69° East 152 175 9,900 960 Climbing Memphis Center
01:23AM 36.2078 -86.2647 71° East 152 175 11,100 1,080 Climbing Memphis Center
01:24AM 36.2250 -86.2147 67° East 157 181 12,100 900 Climbing Memphis Center
01:25AM 36.2397 -86.1600 72° East 157 181 13,000 420 Climbing Memphis Center
01:26AM 36.2583 -86.0922 71° East 170 196 13,000  Level Memphis Center
01:27AM 36.2786 -86.0217 70° East 200 230 13,000  Level Memphis Center
01:28AM 36.2992 -85.9511 70° East 212 244 13,000  Level Memphis Center
01:29AM 36.3325 -85.8456 69° East 226 260 13,000  Level Indianapolis Center
01:30AM 36.3531 -85.7719 71° East 217 250 13,000  Level Indianapolis Center
01:31AM 36.3750 -85.6986 70° East 223 257 13,000  Level Indianapolis Center
01:32AM 36.3961 -85.6256 70° East 225 259 13,000  Level Indianapolis Center
01:33AM 36.4158 -85.5531 71° East 223 257 13,000  Level Indianapolis Center
01:34AM 36.4383 -85.4794 69° East 227 261 13,000  Level Indianapolis Center
01:35AM 36.4589 -85.4044 71° East 228 262 13,000  Level Indianapolis Center
01:36AM 36.4803 -85.3306 70° East 226 260 13,000  Level Indianapolis Center
01:37AM 36.5003 -85.2575 71° East 223 257 13,000  Level Indianapolis Center
01:38AM 36.5233 -85.1839 69° East 226 260 13,000  Level Indianapolis Center
01:39AM 36.5422 -85.1092 73° East 226 260 13,000 -300 Level Indianapolis Center
01:40AM 36.5653 -85.0342 69° East 231 266 12,400 -900 Descending Indianapolis Center
01:41AM 36.5875 -84.9492 72° East 253 291 11,200 -1,200 Descending Indianapolis Center
01:42AM 36.6117 -84.8672 70° East 251 289 10,100 -1,200 Descending Indianapolis Center
01:44AM 36.6331 -84.7858 72° East 247 284 8,900 -1,200 Descending Indianapolis Center
01:45AM 36.6564 -84.7044 70° East 248 285 7,800 -1,200 Descending Indianapolis Center
01:46AM 36.6792 -84.6236 71° East 246 283 6,600 -1,200 Descending Indianapolis Center
01:47AM 36.6992 -84.5497 71° East 231 266 5,400 -1,080 Descending Indianapolis Center
01:48AM 36.7192 -84.4800 70° East 227 261 4,500 -600 Descending Indianapolis Center
01:49AM 36.7383 -84.4103 71° East 218 251 4,200 -300 Descending Indianapolis Center
01:50AM 36.7625 -84.3456 65° Northeast 208 239 4,000 -360 Descending Indianapolis Center
01:51AM 36.7806 -84.2819 70° East 198 228 3,500 -480 Descending Indianapolis Center
01:52AM 36.7897 -84.2247 79° East 177 204 3,100 -360 Descending Indianapolis Center
01:53AM 36.7956 -84.1756 82° East 152 175 2,800 -540 Descending Indianapolis Center
01:54AM 36.8328 -84.1767 359° North 156 180 2,100 -720 Descending Indianapolis Center